Balam Llc — WDJ6285 — position and weather

sailwx.info

Track history (hours):
 
Tides and Currents Weather Stations Pressure Air Temp Water Temp Dewpoint Dewpoint Depression Visibility Wind Speed Wind Dir Waves Ship Positions

Balam Llc

Owner: Balam LLC, San Diego, CA. More information available from US FCC via Universal Licensing System and Coast Guard Vessel Documentation Center.

Last reported at 2017-Nov-19 14:34 UTC. Time now 2017-Nov-21 01:05 UTC.
Position N 27°57' W 015°21'.

Length 15 m.

Type: Sailing vessel. MMSI: 367796230.

Date/timePositionNaut miles runAvg speedWind from/ knotsBaromVisibWave heightAir tempDewpointWater temp
2017-Nov-19 14:34N 27°57' W 015°21'1 5.6
2017-Nov-19 14:24N 27°58' W 015°21'2 5.0
2017-Nov-19 13:55N 28°00' W 015°21'3 5.6
2017-Nov-19 13:25N 28°03' W 015°22'3 5.5
2017-Nov-19 12:56N 28°05' W 015°23'2 4.1
2017-Nov-19 12:26N 28°07' W 015°24'0 0.3
2017-Nov-19 11:56N 28°07' W 015°24'1 1.4
2017-Nov-19 11:30N 28°07' W 015°24'1 2.2
2017-Nov-19 10:56N 28°08' W 015°25'0 0.4
2017-Nov-19 10:27N 28°08' W 015°26'0 0.0
2017-Nov-19 09:54N 28°08' W 015°26'0 0.0
2017-Nov-19 09:24N 28°08' W 015°26'0 0.0
2017-Nov-19 08:54N 28°08' W 015°26'0 0.0
2017-Nov-19 08:24N 28°08' W 015°26'0 0.0
2017-Nov-19 07:54N 28°08' W 015°26'0 0.0
2017-Nov-17 10:15N 28°08' W 015°26'0 0.0
2017-Nov-16 18:15N 28°08' W 015°26'0 0.0
2017-Nov-16 17:57N 28°08' W 015°26'0 0.0
2017-Nov-15 20:05N 28°08' W 015°26'0 0.0
2017-Nov-15 19:59N 28°08' W 015°26'0 0.0
2017-Nov-15 19:28N 28°08' W 015°26'0 0.0
2017-Nov-15 11:17N 28°08' W 015°26'0 0.0
2017-Nov-15 10:58N 28°08' W 015°26'0 0.0
2017-Nov-15 10:28N 28°08' W 015°26'0 0.0
2017-Nov-14 18:11N 28°08' W 015°26'0 0.0
2017-Nov-14 17:59N 28°08' W 015°26'0 0.0
2017-Nov-14 11:29N 28°08' W 015°26'0 0.0
2017-Nov-14 10:59N 28°08' W 015°26'0 0.0
2017-Nov-14 08:32N 28°08' W 015°26'0 0.0
2017-Nov-14 08:29N 28°08' W 015°26'0 0.0
2017-Nov-12 10:47N 28°08' W 015°26'0 0.0
2017-Nov-12 10:23N 28°08' W 015°26'0 0.0
2017-Nov-12 09:53N 28°08' W 015°26'0 0.0
2017-Nov-11 07:38N 28°08' W 015°26'0 0.0
2017-Nov-11 07:23N 28°08' W 015°26'0 0.0
2017-Nov-11 06:53N 28°08' W 015°26'0 0.0
2017-Nov-10 22:59N 28°08' W 015°26'  
Track history (hours):
 
Tides and Currents Weather Stations Pressure Air Temp Water Temp Dewpoint Dewpoint Depression Visibility Wind Speed Wind Dir Waves Ship Positions

Balam Llc

Owner: Balam LLC, San Diego, CA. More information available from US FCC via Universal Licensing System and Coast Guard Vessel Documentation Center.

Last reported at 2017-Nov-19 14:34 UTC. Time now 2017-Nov-21 01:05 UTC.
Position N 27°57' W 015°21'.

Length 15 m.

Type: Sailing vessel. MMSI: 367796230.

Date/timePositionNaut miles runAvg speedWind from/ knotsBaromVisibWave heightAir tempDewpointWater temp
2017-Nov-19 14:34N 27°57' W 015°21'1 5.6
2017-Nov-19 14:24N 27°58' W 015°21'2 5.0
2017-Nov-19 13:55N 28°00' W 015°21'3 5.6
2017-Nov-19 13:25N 28°03' W 015°22'3 5.5
2017-Nov-19 12:56N 28°05' W 015°23'2 4.1
2017-Nov-19 12:26N 28°07' W 015°24'0 0.3
2017-Nov-19 11:56N 28°07' W 015°24'1 1.4
2017-Nov-19 11:30N 28°07' W 015°24'1 2.2
2017-Nov-19 10:56N 28°08' W 015°25'0 0.4
2017-Nov-19 10:27N 28°08' W 015°26'0 0.0
2017-Nov-19 09:54N 28°08' W 015°26'0 0.0
2017-Nov-19 09:24N 28°08' W 015°26'0 0.0
2017-Nov-19 08:54N 28°08' W 015°26'0 0.0
2017-Nov-19 08:24N 28°08' W 015°26'0 0.0
2017-Nov-19 07:54N 28°08' W 015°26'0 0.0
2017-Nov-17 10:15N 28°08' W 015°26'0 0.0
2017-Nov-16 18:15N 28°08' W 015°26'0 0.0
2017-Nov-16 17:57N 28°08' W 015°26'0 0.0
2017-Nov-15 20:05N 28°08' W 015°26'0 0.0
2017-Nov-15 19:59N 28°08' W 015°26'0 0.0
2017-Nov-15 19:28N 28°08' W 015°26'0 0.0
2017-Nov-15 11:17N 28°08' W 015°26'0 0.0
2017-Nov-15 10:58N 28°08' W 015°26'0 0.0
2017-Nov-15 10:28N 28°08' W 015°26'0 0.0
2017-Nov-14 18:11N 28°08' W 015°26'0 0.0
2017-Nov-14 17:59N 28°08' W 015°26'0 0.0
2017-Nov-14 11:29N 28°08' W 015°26'0 0.0
2017-Nov-14 10:59N 28°08' W 015°26'0 0.0
2017-Nov-14 08:32N 28°08' W 015°26'0 0.0
2017-Nov-14 08:29N 28°08' W 015°26'0 0.0
2017-Nov-12 10:47N 28°08' W 015°26'0 0.0
2017-Nov-12 10:23N 28°08' W 015°26'0 0.0
2017-Nov-12 09:53N 28°08' W 015°26'0 0.0
2017-Nov-11 07:38N 28°08' W 015°26'0 0.0
2017-Nov-11 07:23N 28°08' W 015°26'0 0.0
2017-Nov-11 06:53N 28°08' W 015°26'0 0.0
2017-Nov-10 22:59N 28°08' W 015°26'  

Dump ship's entire track history